sensor_id;sensor_type;location;lat;lon;timestamp;P1;durP1;ratioP1;P2;durP2;ratioP2
58222;SDS011;44020;50.890;15.796;2023-04-24T00:00:38;12.50;;;7.10;;
58222;SDS011;44020;50.890;15.796;2023-04-24T00:03:23;11.10;;;7.30;;
58222;SDS011;44020;50.890;15.796;2023-04-24T00:05:51;11.80;;;8.10;;
58222;SDS011;44020;50.890;15.796;2023-04-24T00:08:19;11.40;;;7.20;;
58222;SDS011;44020;50.890;15.796;2023-04-24T00:10:47;13.60;;;7.10;;
58222;SDS011;44020;50.890;15.796;2023-04-24T00:13:14;13.60;;;7.40;;
58222;SDS011;44020;50.890;15.796;2023-04-24T00:15:42;12.90;;;6.70;;
58222;SDS011;44020;50.890;15.796;2023-04-24T00:18:10;10.30;;;5.90;;
58222;SDS011;44020;50.890;15.796;2023-04-24T00:20:37;13.00;;;6.40;;
58222;SDS011;44020;50.890;15.796;2023-04-24T00:23:06;8.60;;;5.40;;
58222;SDS011;44020;50.890;15.796;2023-04-24T00:25:34;9.00;;;6.50;;
58222;SDS011;44020;50.890;15.796;2023-04-24T00:28:02;11.00;;;6.00;;
58222;SDS011;44020;50.890;15.796;2023-04-24T00:30:30;11.00;;;6.20;;
58222;SDS011;44020;50.890;15.796;2023-04-24T00:32:58;10.10;;;6.80;;
58222;SDS011;44020;50.890;15.796;2023-04-24T00:35:25;9.60;;;6.70;;
58222;SDS011;44020;50.890;15.796;2023-04-24T00:37:52;8.70;;;5.30;;
58222;SDS011;44020;50.890;15.796;2023-04-24T00:40:20;11.00;;;5.80;;
58222;SDS011;44020;50.890;15.796;2023-04-24T00:42:47;9.40;;;5.70;;
58222;SDS011;44020;50.890;15.796;2023-04-24T00:45:16;8.90;;;5.90;;
58222;SDS011;44020;50.890;15.796;2023-04-24T00:47:43;8.50;;;5.80;;
58222;SDS011;44020;50.890;15.796;2023-04-24T00:50:14;11.70;;;6.50;;
58222;SDS011;44020;50.890;15.796;2023-04-24T00:52:43;9.40;;;5.60;;
58222;SDS011;44020;50.890;15.796;2023-04-24T00:55:11;12.80;;;5.70;;
58222;SDS011;44020;50.890;15.796;2023-04-24T00:57:38;10.80;;;5.80;;
58222;SDS011;44020;50.890;15.796;2023-04-24T01:00:06;11.50;;;5.50;;
58222;SDS011;44020;50.890;15.796;2023-04-24T01:02:38;9.60;;;5.80;;
58222;SDS011;44020;50.890;15.796;2023-04-24T01:05:13;9.50;;;5.90;;
58222;SDS011;44020;50.890;15.796;2023-04-24T01:07:43;9.80;;;5.70;;
58222;SDS011;44020;50.890;15.796;2023-04-24T01:10:13;10.90;;;6.90;;
58222;SDS011;44020;50.890;15.796;2023-04-24T01:12:41;11.60;;;8.20;;
58222;SDS011;44020;50.890;15.796;2023-04-24T01:15:08;11.40;;;9.60;;
58222;SDS011;44020;50.890;15.796;2023-04-24T01:17:36;16.00;;;9.30;;
58222;SDS011;44020;50.890;15.796;2023-04-24T01:20:05;11.40;;;8.50;;
58222;SDS011;44020;50.890;15.796;2023-04-24T01:22:33;11.60;;;8.40;;
58222;SDS011;44020;50.890;15.796;2023-04-24T01:25:02;11.40;;;8.00;;
58222;SDS011;44020;50.890;15.796;2023-04-24T01:27:31;9.30;;;7.00;;
58222;SDS011;44020;50.890;15.796;2023-04-24T01:29:59;9.10;;;6.80;;
58222;SDS011;44020;50.890;15.796;2023-04-24T01:32:27;11.60;;;7.20;;
58222;SDS011;44020;50.890;15.796;2023-04-24T01:34:55;10.90;;;6.70;;
58222;SDS011;44020;50.890;15.796;2023-04-24T01:37:23;9.10;;;7.10;;
58222;SDS011;44020;50.890;15.796;2023-04-24T01:39:50;9.20;;;6.50;;
58222;SDS011;44020;50.890;15.796;2023-04-24T01:42:17;9.40;;;6.00;;
58222;SDS011;44020;50.890;15.796;2023-04-24T01:44:45;7.80;;;5.70;;
58222;SDS011;44020;50.890;15.796;2023-04-24T01:47:14;8.20;;;5.60;;
58222;SDS011;44020;50.890;15.796;2023-04-24T01:49:42;6.60;;;4.80;;
58222;SDS011;44020;50.890;15.796;2023-04-24T01:52:10;7.40;;;5.20;;
58222;SDS011;44020;50.890;15.796;2023-04-24T01:54:38;8.40;;;5.40;;
58222;SDS011;44020;50.890;15.796;2023-04-24T01:57:05;11.50;;;6.30;;
58222;SDS011;44020;50.890;15.796;2023-04-24T01:59:33;12.10;;;6.10;;
58222;SDS011;44020;50.890;15.796;2023-04-24T02:02:03;15.30;;;7.20;;
58222;SDS011;44020;50.890;15.796;2023-04-24T02:04:30;10.90;;;6.20;;
58222;SDS011;44020;50.890;15.796;2023-04-24T02:06:58;9.20;;;6.30;;
58222;SDS011;44020;50.890;15.796;2023-04-24T02:09:26;8.60;;;5.90;;
58222;SDS011;44020;50.890;15.796;2023-04-24T02:11:54;10.10;;;5.50;;
58222;SDS011;44020;50.890;15.796;2023-04-24T02:14:21;9.30;;;5.30;;
58222;SDS011;44020;50.890;15.796;2023-04-24T02:16:49;8.70;;;4.60;;
58222;SDS011;44020;50.890;15.796;2023-04-24T02:19:17;9.40;;;5.90;;
58222;SDS011;44020;50.890;15.796;2023-04-24T02:21:44;10.90;;;6.30;;
58222;SDS011;44020;50.890;15.796;2023-04-24T02:24:12;10.80;;;6.40;;
58222;SDS011;44020;50.890;15.796;2023-04-24T02:26:40;10.90;;;6.60;;
58222;SDS011;44020;50.890;15.796;2023-04-24T02:29:08;9.30;;;6.20;;
58222;SDS011;44020;50.890;15.796;2023-04-24T02:31:35;12.00;;;6.20;;
58222;SDS011;44020;50.890;15.796;2023-04-24T02:34:03;9.30;;;5.80;;
58222;SDS011;44020;50.890;15.796;2023-04-24T02:36:30;9.40;;;6.20;;
58222;SDS011;44020;50.890;15.796;2023-04-24T02:38:58;9.70;;;6.10;;
58222;SDS011;44020;50.890;15.796;2023-04-24T02:41:27;11.20;;;6.70;;
58222;SDS011;44020;50.890;15.796;2023-04-24T02:43:58;11.60;;;6.50;;
58222;SDS011;44020;50.890;15.796;2023-04-24T02:46:26;8.80;;;6.00;;
58222;SDS011;44020;50.890;15.796;2023-04-24T02:48:53;8.50;;;6.90;;
58222;SDS011;44020;50.890;15.796;2023-04-24T02:51:21;8.60;;;5.80;;
58222;SDS011;44020;50.890;15.796;2023-04-24T02:53:48;9.00;;;5.80;;
58222;SDS011;44020;50.890;15.796;2023-04-24T02:56:15;8.30;;;6.00;;
58222;SDS011;44020;50.890;15.796;2023-04-24T02:58:43;10.20;;;5.60;;
58222;SDS011;44020;50.890;15.796;2023-04-24T03:01:11;7.80;;;5.70;;
58222;SDS011;44020;50.890;15.796;2023-04-24T03:03:39;9.30;;;5.60;;
58222;SDS011;44020;50.890;15.796;2023-04-24T03:06:06;10.50;;;5.60;;
58222;SDS011;44020;50.890;15.796;2023-04-24T03:08:35;9.30;;;5.60;;
58222;SDS011;44020;50.890;15.796;2023-04-24T03:11:03;8.90;;;5.80;;
58222;SDS011;44020;50.890;15.796;2023-04-24T03:13:30;8.90;;;5.80;;
58222;SDS011;44020;50.890;15.796;2023-04-24T03:15:58;10.60;;;7.20;;
58222;SDS011;44020;50.890;15.796;2023-04-24T03:18:26;10.60;;;7.10;;
58222;SDS011;44020;50.890;15.796;2023-04-24T03:20:53;16.50;;;8.00;;
58222;SDS011;44020;50.890;15.796;2023-04-24T03:23:21;12.20;;;8.00;;
58222;SDS011;44020;50.890;15.796;2023-04-24T03:25:48;20.10;;;11.90;;
58222;SDS011;44020;50.890;15.796;2023-04-24T03:28:16;28.50;;;14.90;;
58222;SDS011;44020;50.890;15.796;2023-04-24T03:30:43;26.10;;;14.70;;
58222;SDS011;44020;50.890;15.796;2023-04-24T03:33:11;20.90;;;13.60;;
58222;SDS011;44020;50.890;15.796;2023-04-24T03:35:38;20.80;;;12.10;;
58222;SDS011;44020;50.890;15.796;2023-04-24T03:38:06;20.40;;;12.20;;
58222;SDS011;44020;50.890;15.796;2023-04-24T03:40:34;19.10;;;11.90;;
58222;SDS011;44020;50.890;15.796;2023-04-24T03:43:03;18.50;;;11.60;;
58222;SDS011;44020;50.890;15.796;2023-04-24T03:45:30;18.70;;;10.60;;
58222;SDS011;44020;50.890;15.796;2023-04-24T03:47:57;15.80;;;10.50;;
58222;SDS011;44020;50.890;15.796;2023-04-24T03:50:25;13.10;;;8.80;;
58222;SDS011;44020;50.890;15.796;2023-04-24T03:52:53;12.20;;;8.70;;
58222;SDS011;44020;50.890;15.796;2023-04-24T03:55:21;12.00;;;7.80;;
58222;SDS011;44020;50.890;15.796;2023-04-24T03:57:48;14.40;;;9.20;;
58222;SDS011;44020;50.890;15.796;2023-04-24T04:00:16;28.70;;;12.40;;
58222;SDS011;44020;50.890;15.796;2023-04-24T04:02:43;22.80;;;10.50;;
58222;SDS011;44020;50.890;15.796;2023-04-24T04:05:11;23.30;;;11.00;;
58222;SDS011;44020;50.890;15.796;2023-04-24T04:07:39;23.90;;;11.00;;
58222;SDS011;44020;50.890;15.796;2023-04-24T04:10:06;25.50;;;12.30;;
58222;SDS011;44020;50.890;15.796;2023-04-24T04:12:34;27.80;;;12.90;;
58222;SDS011;44020;50.890;15.796;2023-04-24T04:15:02;27.80;;;12.90;;
58222;SDS011;44020;50.890;15.796;2023-04-24T04:17:31;29.30;;;12.90;;
58222;SDS011;44020;50.890;15.796;2023-04-24T04:19:59;30.10;;;13.20;;
58222;SDS011;44020;50.890;15.796;2023-04-24T04:22:27;21.70;;;9.80;;
58222;SDS011;44020;50.890;15.796;2023-04-24T04:24:55;20.20;;;10.40;;
58222;SDS011;44020;50.890;15.796;2023-04-24T04:27:22;11.20;;;7.50;;
58222;SDS011;44020;50.890;15.796;2023-04-24T04:29:50;12.30;;;7.10;;
58222;SDS011;44020;50.890;15.796;2023-04-24T04:32:17;9.60;;;7.00;;
58222;SDS011;44020;50.890;15.796;2023-04-24T04:34:46;10.40;;;6.70;;
58222;SDS011;44020;50.890;15.796;2023-04-24T04:37:13;9.40;;;6.20;;
58222;SDS011;44020;50.890;15.796;2023-04-24T04:39:41;8.30;;;5.70;;
58222;SDS011;44020;50.890;15.796;2023-04-24T04:42:08;15.60;;;8.50;;
58222;SDS011;44020;50.890;15.796;2023-04-24T04:44:36;16.60;;;9.60;;
58222;SDS011;44020;50.890;15.796;2023-04-24T04:47:05;16.70;;;9.90;;
58222;SDS011;44020;50.890;15.796;2023-04-24T04:49:33;14.60;;;9.30;;
58222;SDS011;44020;50.890;15.796;2023-04-24T04:52:01;17.50;;;9.50;;
58222;SDS011;44020;50.890;15.796;2023-04-24T04:54:29;18.40;;;10.20;;
58222;SDS011;44020;50.890;15.796;2023-04-24T04:56:56;17.90;;;8.90;;
58222;SDS011;44020;50.890;15.796;2023-04-24T04:59:24;17.40;;;9.40;;
58222;SDS011;44020;50.890;15.796;2023-04-24T05:01:52;17.10;;;8.60;;
58222;SDS011;44020;50.890;15.796;2023-04-24T05:04:19;15.20;;;9.10;;
58222;SDS011;44020;50.890;15.796;2023-04-24T05:06:47;15.30;;;9.60;;
58222;SDS011;44020;50.890;15.796;2023-04-24T05:09:15;11.90;;;7.90;;
58222;SDS011;44020;50.890;15.796;2023-04-24T05:11:42;12.80;;;7.60;;
58222;SDS011;44020;50.890;15.796;2023-04-24T05:14:10;9.90;;;7.70;;
58222;SDS011;44020;50.890;15.796;2023-04-24T05:16:39;15.10;;;8.60;;
58222;SDS011;44020;50.890;15.796;2023-04-24T05:19:07;10.20;;;7.40;;
58222;SDS011;44020;50.890;15.796;2023-04-24T05:21:34;12.40;;;7.40;;
58222;SDS011;44020;50.890;15.796;2023-04-24T05:24:02;10.40;;;7.60;;
58222;SDS011;44020;50.890;15.796;2023-04-24T05:26:30;12.60;;;7.50;;
58222;SDS011;44020;50.890;15.796;2023-04-24T05:28:57;12.80;;;7.50;;
58222;SDS011;44020;50.890;15.796;2023-04-24T05:31:25;9.70;;;7.20;;
58222;SDS011;44020;50.890;15.796;2023-04-24T05:33:52;9.70;;;7.30;;
58222;SDS011;44020;50.890;15.796;2023-04-24T05:36:19;22.40;;;13.20;;
58222;SDS011;44020;50.890;15.796;2023-04-24T05:38:46;32.10;;;18.30;;
58222;SDS011;44020;50.890;15.796;2023-04-24T05:41:14;27.70;;;16.00;;
58222;SDS011;44020;50.890;15.796;2023-04-24T05:43:42;17.10;;;10.10;;
58222;SDS011;44020;50.890;15.796;2023-04-24T05:46:10;14.10;;;9.30;;
58222;SDS011;44020;50.890;15.796;2023-04-24T05:48:39;15.40;;;9.10;;
58222;SDS011;44020;50.890;15.796;2023-04-24T05:51:06;15.80;;;7.80;;
58222;SDS011;44020;50.890;15.796;2023-04-24T05:53:34;18.00;;;9.00;;
58222;SDS011;44020;50.890;15.796;2023-04-24T05:56:02;22.10;;;9.30;;
58222;SDS011;44020;50.890;15.796;2023-04-24T05:58:30;15.50;;;8.10;;
58222;SDS011;44020;50.890;15.796;2023-04-24T06:00:58;13.50;;;7.20;;
58222;SDS011;44020;50.890;15.796;2023-04-24T06:03:27;10.50;;;6.20;;
58222;SDS011;44020;50.890;15.796;2023-04-24T06:05:54;8.50;;;6.10;;
58222;SDS011;44020;50.890;15.796;2023-04-24T06:08:22;7.60;;;5.50;;
58222;SDS011;44020;50.890;15.796;2023-04-24T06:10:49;8.50;;;5.00;;
58222;SDS011;44020;50.890;15.796;2023-04-24T06:13:17;6.40;;;5.10;;
58222;SDS011;44020;50.890;15.796;2023-04-24T06:15:44;6.60;;;5.10;;
58222;SDS011;44020;50.890;15.796;2023-04-24T06:18:12;8.60;;;5.00;;
58222;SDS011;44020;50.890;15.796;2023-04-24T06:20:39;7.60;;;4.80;;
58222;SDS011;44020;50.890;15.796;2023-04-24T06:23:07;7.40;;;5.00;;
58222;SDS011;44020;50.890;15.796;2023-04-24T06:25:35;7.90;;;5.30;;
58222;SDS011;44020;50.890;15.796;2023-04-24T06:28:02;6.30;;;4.90;;
58222;SDS011;44020;50.890;15.796;2023-04-24T06:30:30;6.70;;;4.90;;
58222;SDS011;44020;50.890;15.796;2023-04-24T06:32:58;7.40;;;5.10;;
58222;SDS011;44020;50.890;15.796;2023-04-24T06:35:25;6.00;;;4.80;;
58222;SDS011;44020;50.890;15.796;2023-04-24T06:37:52;5.70;;;4.80;;
58222;SDS011;44020;50.890;15.796;2023-04-24T06:40:19;5.10;;;4.20;;
58222;SDS011;44020;50.890;15.796;2023-04-24T06:42:47;8.10;;;4.50;;
58222;SDS011;44020;50.890;15.796;2023-04-24T06:45:14;8.40;;;4.90;;
58222;SDS011;44020;50.890;15.796;2023-04-24T06:47:41;9.50;;;5.30;;
58222;SDS011;44020;50.890;15.796;2023-04-24T06:50:08;7.40;;;5.00;;
58222;SDS011;44020;50.890;15.796;2023-04-24T06:52:36;9.80;;;6.30;;
58222;SDS011;44020;50.890;15.796;2023-04-24T06:55:03;8.50;;;5.60;;
58222;SDS011;44020;50.890;15.796;2023-04-24T06:57:31;7.40;;;5.10;;
58222;SDS011;44020;50.890;15.796;2023-04-24T06:59:58;9.00;;;5.30;;
58222;SDS011;44020;50.890;15.796;2023-04-24T07:02:25;9.90;;;6.10;;
58222;SDS011;44020;50.890;15.796;2023-04-24T07:04:52;8.80;;;4.90;;
58222;SDS011;44020;50.890;15.796;2023-04-24T07:07:19;9.60;;;5.30;;
58222;SDS011;44020;50.890;15.796;2023-04-24T07:09:47;6.30;;;4.60;;
58222;SDS011;44020;50.890;15.796;2023-04-24T07:12:15;5.90;;;4.70;;
58222;SDS011;44020;50.890;15.796;2023-04-24T07:14:43;7.10;;;4.90;;
58222;SDS011;44020;50.890;15.796;2023-04-24T07:17:10;5.80;;;4.40;;
58222;SDS011;44020;50.890;15.796;2023-04-24T07:19:39;5.70;;;3.90;;
58222;SDS011;44020;50.890;15.796;2023-04-24T07:22:06;5.60;;;3.90;;
58222;SDS011;44020;50.890;15.796;2023-04-24T07:24:34;7.00;;;4.30;;
58222;SDS011;44020;50.890;15.796;2023-04-24T07:27:01;4.80;;;3.60;;
58222;SDS011;44020;50.890;15.796;2023-04-24T07:29:28;4.50;;;3.10;;
58222;SDS011;44020;50.890;15.796;2023-04-24T07:31:55;6.80;;;3.00;;
58222;SDS011;44020;50.890;15.796;2023-04-24T07:34:23;5.30;;;2.60;;
58222;SDS011;44020;50.890;15.796;2023-04-24T07:36:49;4.10;;;2.40;;
58222;SDS011;44020;50.890;15.796;2023-04-24T07:39:17;2.70;;;1.80;;
58222;SDS011;44020;50.890;15.796;2023-04-24T07:41:45;3.60;;;2.40;;
58222;SDS011;44020;50.890;15.796;2023-04-24T07:44:12;5.10;;;2.70;;
58222;SDS011;44020;50.890;15.796;2023-04-24T07:46:39;3.90;;;2.50;;
58222;SDS011;44020;50.890;15.796;2023-04-24T07:49:07;4.10;;;2.40;;
58222;SDS011;44020;50.890;15.796;2023-04-24T07:51:34;4.10;;;2.30;;
58222;SDS011;44020;50.890;15.796;2023-04-24T07:54:04;2.50;;;1.70;;
58222;SDS011;44020;50.890;15.796;2023-04-24T07:56:35;2.10;;;1.40;;
58222;SDS011;44020;50.890;15.796;2023-04-24T07:59:05;1.90;;;1.50;;
58222;SDS011;44020;50.890;15.796;2023-04-24T08:01:32;2.60;;;1.40;;
58222;SDS011;44020;50.890;15.796;2023-04-24T08:03:59;2.50;;;1.60;;
58222;SDS011;44020;50.890;15.796;2023-04-24T08:06:27;3.20;;;1.70;;
58222;SDS011;44020;50.890;15.796;2023-04-24T08:08:56;2.80;;;1.50;;
58222;SDS011;44020;50.890;15.796;2023-04-24T08:11:24;3.10;;;1.70;;
58222;SDS011;44020;50.890;15.796;2023-04-24T08:13:52;1.90;;;1.40;;
58222;SDS011;44020;50.890;15.796;2023-04-24T08:16:19;3.20;;;1.60;;
58222;SDS011;44020;50.890;15.796;2023-04-24T08:18:46;2.30;;;1.40;;
58222;SDS011;44020;50.890;15.796;2023-04-24T08:21:13;2.40;;;1.40;;
58222;SDS011;44020;50.890;15.796;2023-04-24T08:23:44;2.60;;;1.40;;
58222;SDS011;44020;50.890;15.796;2023-04-24T08:26:12;2.20;;;1.40;;
58222;SDS011;44020;50.890;15.796;2023-04-24T08:28:39;1.90;;;1.40;;
58222;SDS011;44020;50.890;15.796;2023-04-24T08:31:07;2.50;;;1.50;;
58222;SDS011;44020;50.890;15.796;2023-04-24T08:33:34;1.70;;;1.10;;
58222;SDS011;44020;50.890;15.796;2023-04-24T08:36:04;2.40;;;1.10;;
58222;SDS011;44020;50.890;15.796;2023-04-24T08:38:32;3.20;;;1.30;;
58222;SDS011;44020;50.890;15.796;2023-04-24T08:41:00;3.60;;;1.60;;
58222;SDS011;44020;50.890;15.796;2023-04-24T08:43:28;2.30;;;1.60;;
58222;SDS011;44020;50.890;15.796;2023-04-24T08:45:55;3.00;;;2.00;;
58222;SDS011;44020;50.890;15.796;2023-04-24T08:48:23;5.20;;;2.20;;
58222;SDS011;44020;50.890;15.796;2023-04-24T08:50:51;3.40;;;1.90;;
58222;SDS011;44020;50.890;15.796;2023-04-24T08:53:18;3.00;;;2.10;;
58222;SDS011;44020;50.890;15.796;2023-04-24T08:55:46;3.40;;;1.80;;
58222;SDS011;44020;50.890;15.796;2023-04-24T08:58:15;2.70;;;1.70;;
58222;SDS011;44020;50.890;15.796;2023-04-24T09:00:44;4.90;;;1.80;;
58222;SDS011;44020;50.890;15.796;2023-04-24T09:03:15;3.00;;;2.10;;
58222;SDS011;44020;50.890;15.796;2023-04-24T09:05:43;4.40;;;2.40;;
58222;SDS011;44020;50.890;15.796;2023-04-24T09:08:13;3.20;;;2.30;;
58222;SDS011;44020;50.890;15.796;2023-04-24T09:10:41;6.10;;;3.50;;
58222;SDS011;44020;50.890;15.796;2023-04-24T09:13:08;2.30;;;1.70;;
58222;SDS011;44020;50.890;15.796;2023-04-24T09:15:37;2.50;;;1.80;;
58222;SDS011;44020;50.890;15.796;2023-04-24T09:18:05;3.00;;;1.50;;
58222;SDS011;44020;50.890;15.796;2023-04-24T09:20:32;5.10;;;1.60;;
58222;SDS011;44020;50.890;15.796;2023-04-24T09:23:02;5.00;;;2.10;;
58222;SDS011;44020;50.890;15.796;2023-04-24T09:25:32;6.20;;;3.80;;
58222;SDS011;44020;50.890;15.796;2023-04-24T09:28:01;5.30;;;3.00;;
58222;SDS011;44020;50.890;15.796;2023-04-24T09:30:30;3.80;;;2.30;;
58222;SDS011;44020;50.890;15.796;2023-04-24T09:33:12;3.20;;;2.40;;
58222;SDS011;44020;50.890;15.796;2023-04-24T09:35:42;2.10;;;1.40;;
58222;SDS011;44020;50.890;15.796;2023-04-24T09:38:15;1.80;;;1.20;;
58222;SDS011;44020;50.890;15.796;2023-04-24T09:40:42;2.10;;;1.30;;
58222;SDS011;44020;50.890;15.796;2023-04-24T09:43:12;2.70;;;1.20;;
58222;SDS011;44020;50.890;15.796;2023-04-24T09:45:39;3.40;;;1.30;;
58222;SDS011;44020;50.890;15.796;2023-04-24T09:48:09;1.30;;;0.90;;
58222;SDS011;44020;50.890;15.796;2023-04-24T09:50:37;2.40;;;0.60;;
58222;SDS011;44020;50.890;15.796;2023-04-24T09:53:05;1.50;;;0.70;;
58222;SDS011;44020;50.890;15.796;2023-04-24T09:55:42;1.60;;;0.80;;
58222;SDS011;44020;50.890;15.796;2023-04-24T09:58:12;2.20;;;0.40;;
58222;SDS011;44020;50.890;15.796;2023-04-24T10:00:40;0.70;;;0.40;;
58222;SDS011;44020;50.890;15.796;2023-04-24T10:03:08;0.30;;;0.10;;
58222;SDS011;44020;50.890;15.796;2023-04-24T10:05:35;3.00;;;0.50;;
58222;SDS011;44020;50.890;15.796;2023-04-24T10:08:07;0.20;;;0.20;;
58222;SDS011;44020;50.890;15.796;2023-04-24T10:10:43;1.00;;;0.30;;
58222;SDS011;44020;50.890;15.796;2023-04-24T10:13:12;0.60;;;0.30;;
58222;SDS011;44020;50.890;15.796;2023-04-24T10:15:41;0.60;;;0.40;;
58222;SDS011;44020;50.890;15.796;2023-04-24T10:18:09;0.70;;;0.40;;
58222;SDS011;44020;50.890;15.796;2023-04-24T10:20:38;1.10;;;0.50;;
58222;SDS011;44020;50.890;15.796;2023-04-24T10:23:07;1.00;;;0.40;;
58222;SDS011;44020;50.890;15.796;2023-04-24T10:25:35;1.00;;;0.40;;
58222;SDS011;44020;50.890;15.796;2023-04-24T10:28:04;1.50;;;0.40;;
58222;SDS011;44020;50.890;15.796;2023-04-24T10:30:33;0.60;;;0.50;;
58222;SDS011;44020;50.890;15.796;2023-04-24T10:33:06;1.60;;;0.40;;
58222;SDS011;44020;50.890;15.796;2023-04-24T10:35:39;1.40;;;0.80;;
58222;SDS011;44020;50.890;15.796;2023-04-24T10:38:12;1.10;;;0.40;;
58222;SDS011;44020;50.890;15.796;2023-04-24T10:40:42;1.80;;;0.80;;
58222;SDS011;44020;50.890;15.796;2023-04-24T10:43:11;2.90;;;1.00;;
58222;SDS011;44020;50.890;15.796;2023-04-24T10:46:03;2.40;;;1.10;;
58222;SDS011;44020;50.890;15.796;2023-04-24T10:48:33;3.00;;;1.10;;
58222;SDS011;44020;50.890;15.796;2023-04-24T10:51:01;2.10;;;0.90;;
58222;SDS011;44020;50.890;15.796;2023-04-24T10:53:29;2.40;;;1.50;;
58222;SDS011;44020;50.890;15.796;2023-04-24T10:55:58;3.10;;;1.10;;
58222;SDS011;44020;50.890;15.796;2023-04-24T11:01:05;4.00;;;0.90;;
58222;SDS011;44020;50.890;15.796;2023-04-24T11:03:34;2.30;;;1.20;;
58222;SDS011;44020;50.890;15.796;2023-04-24T11:06:03;1.80;;;0.60;;
58222;SDS011;44020;50.890;15.796;2023-04-24T11:21:44;2.40;;;1.00;;
58222;SDS011;44020;50.890;15.796;2023-04-24T11:24:24;2.20;;;1.10;;
58222;SDS011;44020;50.890;15.796;2023-04-24T11:26:55;7.70;;;1.00;;
58222;SDS011;44020;50.890;15.796;2023-04-24T11:34:58;4.00;;;1.00;;
58222;SDS011;44020;50.890;15.796;2023-04-24T11:37:28;2.10;;;1.00;;
58222;SDS011;44020;50.890;15.796;2023-04-24T11:40:03;2.20;;;1.60;;
58222;SDS011;44020;50.890;15.796;2023-04-24T11:42:39;11.20;;;5.30;;
58222;SDS011;44020;50.890;15.796;2023-04-24T11:45:11;9.20;;;3.90;;
58222;SDS011;44020;50.890;15.796;2023-04-24T11:50:12;11.70;;;6.10;;
58222;SDS011;44020;50.890;15.796;2023-04-24T11:52:45;10.50;;;5.70;;
58222;SDS011;44020;50.890;15.796;2023-04-24T11:57:48;3.10;;;1.60;;
58222;SDS011;44020;50.890;15.796;2023-04-24T12:00:24;2.30;;;1.40;;
58222;SDS011;44020;50.890;15.796;2023-04-24T12:03:03;2.50;;;1.60;;
58222;SDS011;44020;50.890;15.796;2023-04-24T12:05:38;5.60;;;2.40;;
58222;SDS011;44020;50.890;15.796;2023-04-24T12:08:06;5.10;;;2.50;;
58222;SDS011;44020;50.890;15.796;2023-04-24T12:10:33;11.40;;;5.10;;
58222;SDS011;44020;50.890;15.796;2023-04-24T12:13:03;6.80;;;3.30;;
58222;SDS011;44020;50.890;15.796;2023-04-24T12:15:30;3.00;;;1.80;;
58222;SDS011;44020;50.890;15.796;2023-04-24T12:17:57;3.10;;;1.90;;
58222;SDS011;44020;50.890;15.796;2023-04-24T12:20:26;8.40;;;4.80;;
58222;SDS011;44020;50.890;15.796;2023-04-24T12:22:59;8.20;;;5.10;;
58222;SDS011;44020;50.890;15.796;2023-04-24T12:25:28;10.30;;;4.60;;
58222;SDS011;44020;50.890;15.796;2023-04-24T12:30:30;3.20;;;2.10;;
58222;SDS011;44020;50.890;15.796;2023-04-24T12:33:00;4.40;;;1.60;;
58222;SDS011;44020;50.890;15.796;2023-04-24T12:35:29;2.90;;;1.90;;
58222;SDS011;44020;50.890;15.796;2023-04-24T12:38:08;2.60;;;1.70;;
58222;SDS011;44020;50.890;15.796;2023-04-24T12:40:40;2.60;;;1.60;;
58222;SDS011;44020;50.890;15.796;2023-04-24T12:43:16;3.20;;;1.50;;
58222;SDS011;44020;50.890;15.796;2023-04-24T12:45:49;2.20;;;1.60;;
58222;SDS011;44020;50.890;15.796;2023-04-24T12:48:16;5.10;;;2.10;;
58222;SDS011;44020;50.890;15.796;2023-04-24T12:50:43;17.00;;;8.70;;
58222;SDS011;44020;50.890;15.796;2023-04-24T12:53:11;9.70;;;4.90;;
58222;SDS011;44020;50.890;15.796;2023-04-24T12:55:38;6.10;;;3.60;;
58222;SDS011;44020;50.890;15.796;2023-04-24T12:58:05;4.00;;;2.00;;
58222;SDS011;44020;50.890;15.796;2023-04-24T13:00:33;2.30;;;1.60;;
58222;SDS011;44020;50.890;15.796;2023-04-24T13:03:00;9.70;;;4.40;;
58222;SDS011;44020;50.890;15.796;2023-04-24T13:05:28;10.70;;;5.60;;
58222;SDS011;44020;50.890;15.796;2023-04-24T13:07:55;5.50;;;3.40;;
58222;SDS011;44020;50.890;15.796;2023-04-24T13:10:23;11.80;;;4.40;;
58222;SDS011;44020;50.890;15.796;2023-04-24T13:12:51;16.10;;;9.80;;
58222;SDS011;44020;50.890;15.796;2023-04-24T13:15:18;17.40;;;9.60;;
58222;SDS011;44020;50.890;15.796;2023-04-24T13:17:46;11.80;;;7.30;;
58222;SDS011;44020;50.890;15.796;2023-04-24T13:20:13;6.30;;;4.20;;
58222;SDS011;44020;50.890;15.796;2023-04-24T13:22:41;5.20;;;3.30;;
58222;SDS011;44020;50.890;15.796;2023-04-24T13:25:08;3.90;;;2.80;;
58222;SDS011;44020;50.890;15.796;2023-04-24T13:27:38;2.70;;;1.80;;
58222;SDS011;44020;50.890;15.796;2023-04-24T13:30:06;4.00;;;2.10;;
58222;SDS011;44020;50.890;15.796;2023-04-24T13:32:34;3.90;;;2.10;;
58222;SDS011;44020;50.890;15.796;2023-04-24T13:35:02;4.40;;;2.70;;
58222;SDS011;44020;50.890;15.796;2023-04-24T13:37:29;4.20;;;2.50;;
58222;SDS011;44020;50.890;15.796;2023-04-24T13:39:57;6.80;;;4.20;;
58222;SDS011;44020;50.890;15.796;2023-04-24T13:42:24;8.60;;;4.60;;
58222;SDS011;44020;50.890;15.796;2023-04-24T13:44:52;7.10;;;3.90;;
58222;SDS011;44020;50.890;15.796;2023-04-24T13:47:20;7.30;;;4.40;;
58222;SDS011;44020;50.890;15.796;2023-04-24T13:49:47;6.20;;;4.00;;
58222;SDS011;44020;50.890;15.796;2023-04-24T13:52:15;7.90;;;4.20;;
58222;SDS011;44020;50.890;15.796;2023-04-24T13:54:42;8.30;;;4.90;;
58222;SDS011;44020;50.890;15.796;2023-04-24T13:57:09;5.50;;;4.10;;
58222;SDS011;44020;50.890;15.796;2023-04-24T13:59:37;5.80;;;3.90;;
58222;SDS011;44020;50.890;15.796;2023-04-24T14:02:05;6.40;;;3.70;;
58222;SDS011;44020;50.890;15.796;2023-04-24T14:04:32;8.50;;;4.80;;
58222;SDS011;44020;50.890;15.796;2023-04-24T14:06:59;11.30;;;5.60;;
58222;SDS011;44020;50.890;15.796;2023-04-24T14:09:27;7.40;;;3.80;;
58222;SDS011;44020;50.890;15.796;2023-04-24T14:11:53;7.30;;;3.10;;
58222;SDS011;44020;50.890;15.796;2023-04-24T14:14:21;4.80;;;2.90;;
58222;SDS011;44020;50.890;15.796;2023-04-24T14:16:48;5.00;;;3.30;;
58222;SDS011;44020;50.890;15.796;2023-04-24T14:19:16;6.70;;;4.30;;
58222;SDS011;44020;50.890;15.796;2023-04-24T14:21:43;4.50;;;3.50;;
58222;SDS011;44020;50.890;15.796;2023-04-24T14:24:10;5.00;;;2.30;;
58222;SDS011;44020;50.890;15.796;2023-04-24T14:26:37;3.60;;;1.90;;
58222;SDS011;44020;50.890;15.796;2023-04-24T14:29:05;3.40;;;1.90;;
58222;SDS011;44020;50.890;15.796;2023-04-24T14:31:33;28.60;;;13.80;;
58222;SDS011;44020;50.890;15.796;2023-04-24T14:34:00;11.00;;;6.10;;
58222;SDS011;44020;50.890;15.796;2023-04-24T14:36:27;15.60;;;7.20;;
58222;SDS011;44020;50.890;15.796;2023-04-24T14:38:54;5.60;;;3.40;;
58222;SDS011;44020;50.890;15.796;2023-04-24T14:41:22;4.90;;;2.90;;
58222;SDS011;44020;50.890;15.796;2023-04-24T14:43:49;4.40;;;2.30;;
58222;SDS011;44020;50.890;15.796;2023-04-24T14:46:17;5.90;;;1.50;;
58222;SDS011;44020;50.890;15.796;2023-04-24T14:51:11;3.90;;;2.10;;
58222;SDS011;44020;50.890;15.796;2023-04-24T14:53:38;4.40;;;2.60;;
58222;SDS011;44020;50.890;15.796;2023-04-24T14:56:05;5.20;;;2.60;;
58222;SDS011;44020;50.890;15.796;2023-04-24T14:58:33;6.80;;;2.20;;
58222;SDS011;44020;50.890;15.796;2023-04-24T15:01:01;4.10;;;1.80;;
58222;SDS011;44020;50.890;15.796;2023-04-24T15:03:29;3.80;;;2.00;;
58222;SDS011;44020;50.890;15.796;2023-04-24T15:05:56;2.80;;;1.80;;